Time;durP1;ratioP1;P1;durP2;ratioP2;P2;SDS_P1;SDS_P2;PMS_P1;PMS_P2;Temp;Humidity;BMP_temperature;BMP_pressure;BME280_temperature;BME280_humidity;BME280_pressure;Samples;Min_cycle;Max_cycle;Signal;HPM_P1;HPM_P2
2022/07/19 00:01:30;;;;;;;2.78;1.23;;;;;;;;;;5070389;28;20083;-57
2022/07/19 00:03:57;;;;;;;1.73;1.15;;;;;;;;;;5071395;28;20075;-57
2022/07/19 00:06:23;;;;;;;3.22;1.52;;;;;;;;;;5069712;28;20036;-57
2022/07/19 00:08:49;;;;;;;1.75;1.00;;;;;;;;;;5069936;28;20040;-57
2022/07/19 00:11:15;;;;;;;1.25;1.15;;;;;;;;;;5070466;28;20094;-57
2022/07/19 00:13:41;;;;;;;2.10;1.20;;;;;;;;;;5070476;28;20040;-58
2022/07/19 00:16:07;;;;;;;3.17;1.35;;;;;;;;;;5070924;28;20040;-58
2022/07/19 00:18:33;;;;;;;2.75;1.42;;;;;;;;;;5070990;28;20242;-57
2022/07/19 00:20:59;;;;;;;1.40;1.00;;;;;;;;;;5069984;28;20049;-57
2022/07/19 00:23:25;;;;;;;2.50;1.30;;;;;;;;;;5073313;28;20059;-58
2022/07/19 00:25:51;;;;;;;1.10;0.80;;;;;;;;;;5069882;28;20052;-58
2022/07/19 00:28:17;;;;;;;2.90;1.20;;;;;;;;;;5071269;28;20048;-57
2022/07/19 00:30:44;;;;;;;1.55;1.00;;;;;;;;;;5073661;28;20052;-57
2022/07/19 00:33:10;;;;;;;2.03;1.23;;;;;;;;;;5071084;28;20052;-57
2022/07/19 00:35:36;;;;;;;1.60;1.10;;;;;;;;;;5088177;28;20443;-57
2022/07/19 00:38:10;;;;;;;1.50;1.00;;;;;;;;;;5074299;28;20101;-57
2022/07/19 00:40:36;;;;;;;1.27;1.00;;;;;;;;;;5075421;28;20040;-58
2022/07/19 00:43:03;;;;;;;1.70;1.23;;;;;;;;;;5071068;28;20084;-57
2022/07/19 00:45:32;;;;;;;1.25;0.95;;;;;;;;;;5085034;28;20105;-58
2022/07/19 00:47:58;;;;;;;1.88;1.33;;;;;;;;;;5090738;28;20435;-58
2022/07/19 00:50:24;;;;;;;1.35;1.00;;;;;;;;;;5080721;28;20268;-57
2022/07/19 00:52:51;;;;;;;1.67;1.00;;;;;;;;;;5090398;28;20048;-58
2022/07/19 00:55:22;;;;;;;3.10;1.23;;;;;;;;;;5080066;28;20043;-57
2022/07/19 00:57:49;;;;;;;1.02;0.93;;;;;;;;;;5079172;28;20381;-57
2022/07/19 01:00:16;;;;;;;1.75;1.08;;;;;;;;;;5076852;28;20048;-58
2022/07/19 01:02:42;;;;;;;1.30;1.05;;;;;;;;;;5094153;28;20051;-58
2022/07/19 01:05:12;;;;;;;1.45;0.90;;;;;;;;;;5088719;28;20044;-57
2022/07/19 01:07:40;;;;;;;1.50;1.10;;;;;;;;;;5081856;28;20131;-57
2022/07/19 01:10:07;;;;;;;1.02;0.82;;;;;;;;;;5079167;28;20123;-57
2022/07/19 01:12:33;;;;;;;1.73;1.10;;;;;;;;;;5090912;28;20040;-58
2022/07/19 01:14:59;;;;;;;1.13;0.90;;;;;;;;;;5085036;28;20127;-57
2022/07/19 01:17:26;;;;;;;1.45;0.80;;;;;;;;;;5070611;28;20041;-57
2022/07/19 01:19:52;;;;;;;1.55;1.10;;;;;;;;;;5076926;28;20421;-57
2022/07/19 01:22:18;;;;;;;1.33;1.00;;;;;;;;;;5084853;28;20047;-57
2022/07/19 01:24:44;;;;;;;2.90;1.50;;;;;;;;;;5072720;28;20040;-57
2022/07/19 01:27:10;;;;;;;2.13;1.20;;;;;;;;;;5073064;28;20079;-57
2022/07/19 01:29:37;;;;;;;2.05;0.98;;;;;;;;;;5074939;28;20110;-57
2022/07/19 01:32:06;;;;;;;1.15;0.93;;;;;;;;;;5070239;28;20044;-57
2022/07/19 01:34:32;;;;;;;1.58;1.10;;;;;;;;;;5070326;28;20131;-57
2022/07/19 01:36:59;;;;;;;1.48;1.00;;;;;;;;;;5068834;28;20098;-57
2022/07/19 01:39:25;;;;;;;2.17;1.17;;;;;;;;;;5071211;28;20040;-57
2022/07/19 01:41:51;;;;;;;1.42;0.93;;;;;;;;;;5076760;28;20036;-57
2022/07/19 01:44:17;;;;;;;2.03;1.00;;;;;;;;;;5088573;28;20048;-57
2022/07/19 01:46:43;;;;;;;1.20;0.90;;;;;;;;;;5089224;28;20105;-57
2022/07/19 01:49:09;;;;;;;2.42;1.23;;;;;;;;;;5087177;28;20044;-57
2022/07/19 01:51:35;;;;;;;1.50;1.13;;;;;;;;;;5088735;28;20108;-57
2022/07/19 01:54:01;;;;;;;1.10;1.00;;;;;;;;;;5081425;28;20478;-57
2022/07/19 01:56:27;;;;;;;1.50;1.00;;;;;;;;;;5069840;28;20044;-57
2022/07/19 01:58:53;;;;;;;1.73;1.05;;;;;;;;;;5069773;28;20044;-57
2022/07/19 02:01:19;;;;;;;1.25;0.95;;;;;;;;;;5074637;28;20133;-58
2022/07/19 02:03:45;;;;;;;2.03;1.10;;;;;;;;;;5072929;28;20049;-58
2022/07/19 02:06:11;;;;;;;1.25;1.10;;;;;;;;;;5071115;28;20046;-57
2022/07/19 02:08:37;;;;;;;1.33;1.00;;;;;;;;;;5093396;28;20261;-58
2022/07/19 02:13:49;;;;;;;1.10;0.90;;;;;;;;;;5078621;28;20066;-58
2022/07/19 02:16:15;;;;;;;1.02;0.88;;;;;;;;;;5093379;28;20044;-58
2022/07/19 02:18:41;;;;;;;1.40;0.95;;;;;;;;;;5093415;28;20066;-58
2022/07/19 02:21:07;;;;;;;0.95;0.80;;;;;;;;;;5090706;28;20044;-57
2022/07/19 02:23:33;;;;;;;2.28;1.00;;;;;;;;;;5084738;28;20125;-57
2022/07/19 02:25:59;;;;;;;1.42;0.82;;;;;;;;;;5077291;28;20040;-57
2022/07/19 02:28:25;;;;;;;1.20;1.05;;;;;;;;;;5084119;28;20055;-57
2022/07/19 02:30:51;;;;;;;1.35;0.80;;;;;;;;;;5089981;28;20075;-57
2022/07/19 02:33:17;;;;;;;0.90;0.75;;;;;;;;;;5071749;28;20040;-57
2022/07/19 02:35:43;;;;;;;1.92;1.02;;;;;;;;;;5071077;28;20552;-57
2022/07/19 02:38:09;;;;;;;1.50;0.90;;;;;;;;;;5073063;28;20042;-58
2022/07/19 02:40:35;;;;;;;1.23;0.90;;;;;;;;;;5071938;28;20091;-58
2022/07/19 02:43:01;;;;;;;1.88;1.00;;;;;;;;;;5072017;28;20048;-58
2022/07/19 02:45:27;;;;;;;1.90;0.82;;;;;;;;;;5073051;28;20063;-58
2022/07/19 02:47:53;;;;;;;1.55;1.00;;;;;;;;;;5070795;28;20036;-58
2022/07/19 02:50:19;;;;;;;1.73;0.98;;;;;;;;;;5087206;28;20087;-58
2022/07/19 02:52:45;;;;;;;1.77;1.20;;;;;;;;;;5086211;28;20040;-58
2022/07/19 02:55:12;;;;;;;1.20;1.10;;;;;;;;;;5091759;28;20051;-58
2022/07/19 02:57:38;;;;;;;0.80;0.80;;;;;;;;;;5080615;28;20127;-58
2022/07/19 03:00:06;;;;;;;1.25;0.90;;;;;;;;;;5079883;28;20104;-58
2022/07/19 03:02:32;;;;;;;1.75;1.05;;;;;;;;;;5090273;28;20064;-58
2022/07/19 03:04:58;;;;;;;1.10;1.00;;;;;;;;;;5072520;28;20060;-58
2022/07/19 03:07:24;;;;;;;2.35;0.90;;;;;;;;;;5071406;28;20082;-58
2022/07/19 03:09:50;;;;;;;1.55;0.98;;;;;;;;;;5071084;28;20093;-58
2022/07/19 03:12:16;;;;;;;1.77;1.05;;;;;;;;;;5072061;28;20128;-58
2022/07/19 03:14:42;;;;;;;0.95;0.77;;;;;;;;;;5072268;28;20080;-58
2022/07/19 03:17:08;;;;;;;2.28;1.35;;;;;;;;;;5072133;28;20105;-58
2022/07/19 03:19:34;;;;;;;1.33;1.00;;;;;;;;;;5091345;28;20061;-58
2022/07/19 03:22:01;;;;;;;1.25;0.93;;;;;;;;;;5084113;28;20037;-58
2022/07/19 03:24:27;;;;;;;1.98;0.95;;;;;;;;;;5071081;28;20373;-58
2022/07/19 03:26:53;;;;;;;1.80;1.10;;;;;;;;;;5075774;28;20177;-58
2022/07/19 03:29:19;;;;;;;1.63;0.80;;;;;;;;;;5077495;28;20132;-58
2022/07/19 03:31:45;;;;;;;2.25;1.05;;;;;;;;;;5087814;28;20047;-58
2022/07/19 03:34:11;;;;;;;1.00;0.90;;;;;;;;;;5084665;28;20044;-58
2022/07/19 03:36:37;;;;;;;1.10;0.90;;;;;;;;;;5090902;28;20177;-58
2022/07/19 03:39:03;;;;;;;1.33;1.00;;;;;;;;;;5090650;28;20547;-58
2022/07/19 03:41:29;;;;;;;1.70;1.10;;;;;;;;;;5091873;28;20044;-58
2022/07/19 03:43:55;;;;;;;1.73;1.15;;;;;;;;;;5091399;28;20122;-58
2022/07/19 03:46:21;;;;;;;1.65;1.20;;;;;;;;;;5091512;28;20041;-58
2022/07/19 03:48:48;;;;;;;2.05;1.05;;;;;;;;;;5091779;28;20047;-58
2022/07/19 03:51:14;;;;;;;2.40;1.00;;;;;;;;;;5086531;28;20439;-58
2022/07/19 03:53:40;;;;;;;1.88;1.10;;;;;;;;;;5081235;28;20067;-58
2022/07/19 03:56:06;;;;;;;2.40;1.40;;;;;;;;;;5069637;28;20036;-58
2022/07/19 03:58:32;;;;;;;1.48;1.02;;;;;;;;;;5086702;28;20075;-58
2022/07/19 04:00:58;;;;;;;2.22;1.10;;;;;;;;;;5070223;28;20079;-58
2022/07/19 04:03:24;;;;;;;1.70;1.10;;;;;;;;;;5075808;28;20097;-58
2022/07/19 04:05:50;;;;;;;1.38;1.00;;;;;;;;;;5090129;28;20056;-58
2022/07/19 04:08:16;;;;;;;1.42;0.93;;;;;;;;;;5083268;28;20161;-58
2022/07/19 04:10:42;;;;;;;1.35;0.90;;;;;;;;;;5088095;28;20116;-58
2022/07/19 04:13:09;;;;;;;1.23;0.80;;;;;;;;;;5071020;28;20079;-58
2022/07/19 04:15:35;;;;;;;1.55;1.00;;;;;;;;;;5086425;28;20096;-58
2022/07/19 04:18:01;;;;;;;0.88;0.85;;;;;;;;;;5073061;28;20090;-58
2022/07/19 04:20:27;;;;;;;1.08;0.90;;;;;;;;;;5073680;28;20044;-58
2022/07/19 04:22:53;;;;;;;1.83;1.10;;;;;;;;;;5078539;28;20097;-58
2022/07/19 04:25:20;;;;;;;1.63;1.13;;;;;;;;;;5070778;28;20045;-58
2022/07/19 04:27:47;;;;;;;1.52;1.00;;;;;;;;;;5070870;28;20045;-58
2022/07/19 04:30:13;;;;;;;1.15;1.00;;;;;;;;;;5069720;28;20842;-58
2022/07/19 04:32:39;;;;;;;1.50;1.00;;;;;;;;;;5075772;28;20040;-58
2022/07/19 04:35:07;;;;;;;1.40;1.13;;;;;;;;;;5069823;28;20044;-58
2022/07/19 04:37:33;;;;;;;1.83;1.20;;;;;;;;;;5090745;28;20055;-58
2022/07/19 04:39:59;;;;;;;0.95;0.82;;;;;;;;;;5083650;28;20119;-58
2022/07/19 04:42:25;;;;;;;1.55;0.90;;;;;;;;;;5070492;28;20039;-58
2022/07/19 04:44:51;;;;;;;2.08;1.02;;;;;;;;;;5082664;28;20048;-58
2022/07/19 04:47:17;;;;;;;1.52;1.05;;;;;;;;;;5075483;28;20106;-58
2022/07/19 04:49:43;;;;;;;1.65;1.02;;;;;;;;;;5070327;28;20080;-58
2022/07/19 04:52:09;;;;;;;1.10;0.85;;;;;;;;;;5077268;28;20439;-59
2022/07/19 04:54:35;;;;;;;1.45;1.02;;;;;;;;;;5089972;28;20377;-58
2022/07/19 04:57:01;;;;;;;1.25;1.10;;;;;;;;;;5090096;28;20048;-58
2022/07/19 04:59:28;;;;;;;1.50;1.33;;;;;;;;;;5086821;28;20047;-58
2022/07/19 05:01:54;;;;;;;1.25;0.90;;;;;;;;;;5082441;28;20051;-58
2022/07/19 05:04:20;;;;;;;1.95;1.38;;;;;;;;;;5078082;28;20044;-58
2022/07/19 05:06:46;;;;;;;2.42;1.30;;;;;;;;;;5076753;28;20098;-58
2022/07/19 05:09:12;;;;;;;2.20;1.08;;;;;;;;;;5068708;28;20133;-58
2022/07/19 05:11:38;;;;;;;1.35;1.05;;;;;;;;;;5086843;28;20047;-58
2022/07/19 05:14:04;;;;;;;2.13;1.15;;;;;;;;;;5083502;28;20048;-58
2022/07/19 05:16:30;;;;;;;1.65;1.05;;;;;;;;;;5072043;28;20381;-58
2022/07/19 05:18:56;;;;;;;1.52;1.10;;;;;;;;;;5090322;28;20131;-58
2022/07/19 05:21:22;;;;;;;1.17;0.90;;;;;;;;;;5082451;28;20048;-58
2022/07/19 05:23:48;;;;;;;1.52;1.10;;;;;;;;;;5089070;28;20086;-58
2022/07/19 05:26:14;;;;;;;1.48;1.00;;;;;;;;;;5078549;28;20048;-58
2022/07/19 05:28:40;;;;;;;1.58;1.15;;;;;;;;;;5074149;28;20040;-58
2022/07/19 05:31:06;;;;;;;2.08;1.35;;;;;;;;;;5083435;28;20519;-58
2022/07/19 05:33:33;;;;;;;2.40;1.30;;;;;;;;;;5080073;28;20051;-58
2022/07/19 05:35:59;;;;;;;0.90;0.90;;;;;;;;;;5092911;28;20044;-58
2022/07/19 05:38:25;;;;;;;1.55;1.00;;;;;;;;;;5094052;28;20040;-58
2022/07/19 05:40:51;;;;;;;1.50;1.10;;;;;;;;;;5087031;28;20121;-58
2022/07/19 05:43:17;;;;;;;1.10;1.02;;;;;;;;;;5093739;28;20488;-58
2022/07/19 05:45:44;;;;;;;1.52;1.02;;;;;;;;;;5077973;28;20181;-58
2022/07/19 05:48:10;;;;;;;1.52;1.10;;;;;;;;;;5073320;28;20048;-58
2022/07/19 05:50:36;;;;;;;1.35;0.85;;;;;;;;;;5072547;28;20482;-58
2022/07/19 05:53:02;;;;;;;1.20;1.00;;;;;;;;;;5074147;28;20412;-57
2022/07/19 05:55:28;;;;;;;1.60;0.90;;;;;;;;;;5073066;28;20094;-58
2022/07/19 05:57:54;;;;;;;1.40;1.25;;;;;;;;;;5086676;28;20051;-58
2022/07/19 06:00:20;;;;;;;1.95;1.23;;;;;;;;;;5091378;28;20047;-58
2022/07/19 06:02:46;;;;;;;1.48;1.00;;;;;;;;;;5079582;28;20801;-58
2022/07/19 06:05:12;;;;;;;1.50;1.00;;;;;;;;;;5072102;28;20213;-58
2022/07/19 06:07:38;;;;;;;1.73;1.20;;;;;;;;;;5093758;28;20048;-58
2022/07/19 06:10:05;;;;;;;1.98;1.30;;;;;;;;;;5075417;28;20591;-58
2022/07/19 06:12:31;;;;;;;1.98;1.02;;;;;;;;;;5073302;28;20040;-58
2022/07/19 06:14:57;;;;;;;1.00;0.90;;;;;;;;;;5083760;28;20393;-58
2022/07/19 06:17:23;;;;;;;1.92;1.23;;;;;;;;;;5078951;28;20173;-58
2022/07/19 06:19:49;;;;;;;2.15;1.20;;;;;;;;;;5073631;28;20044;-58
2022/07/19 06:22:15;;;;;;;2.28;1.17;;;;;;;;;;5090663;28;20044;-58
2022/07/19 06:24:41;;;;;;;1.60;1.10;;;;;;;;;;5078323;28;21037;-58
2022/07/19 06:27:07;;;;;;;2.53;1.45;;;;;;;;;;5092045;28;20445;-57
2022/07/19 06:29:33;;;;;;;1.70;1.02;;;;;;;;;;5091313;28;20546;-58
2022/07/19 06:31:59;;;;;;;2.47;1.48;;;;;;;;;;5089504;28;20423;-58
2022/07/19 06:34:25;;;;;;;1.85;1.08;;;;;;;;;;5092340;28;20521;-58
2022/07/19 06:36:51;;;;;;;2.05;1.27;;;;;;;;;;5092170;28;20047;-58
2022/07/19 06:39:17;;;;;;;2.08;1.25;;;;;;;;;;5089638;28;20042;-58
2022/07/19 06:41:43;;;;;;;2.15;1.23;;;;;;;;;;5092848;28;20116;-58
2022/07/19 06:44:09;;;;;;;1.85;1.10;;;;;;;;;;5091258;28;20040;-58
2022/07/19 06:46:35;;;;;;;1.27;1.10;;;;;;;;;;5071623;28;20123;-58
2022/07/19 06:49:01;;;;;;;2.97;1.10;;;;;;;;;;5072559;28;20044;-58
2022/07/19 06:51:27;;;;;;;1.52;0.98;;;;;;;;;;5069677;28;20044;-58
2022/07/19 06:53:54;;;;;;;1.20;1.10;;;;;;;;;;5071907;28;20080;-58
2022/07/19 06:56:20;;;;;;;1.92;1.20;;;;;;;;;;5087791;28;20397;-58
2022/07/19 06:58:46;;;;;;;2.03;1.15;;;;;;;;;;5092790;28;20112;-57
2022/07/19 07:01:12;;;;;;;1.48;1.20;;;;;;;;;;5086187;28;20083;-57
2022/07/19 07:03:38;;;;;;;2.10;1.00;;;;;;;;;;5072614;28;20449;-58
2022/07/19 07:06:04;;;;;;;1.33;1.10;;;;;;;;;;5072808;28;20090;-57
2022/07/19 07:08:31;;;;;;;2.97;1.20;;;;;;;;;;5072117;28;20050;-57
2022/07/19 07:10:57;;;;;;;1.58;1.23;;;;;;;;;;5081938;28;20053;-57
2022/07/19 07:13:23;;;;;;;1.50;1.20;;;;;;;;;;5083352;28;20080;-57
2022/07/19 07:15:49;;;;;;;2.38;1.35;;;;;;;;;;5073599;28;20048;-58
2022/07/19 07:18:15;;;;;;;1.55;1.20;;;;;;;;;;5085557;28;20048;-57
2022/07/19 07:20:41;;;;;;;0.95;0.93;;;;;;;;;;5086494;28;20066;-58
2022/07/19 07:23:07;;;;;;;1.90;1.30;;;;;;;;;;5078414;28;20131;-58
2022/07/19 07:25:33;;;;;;;1.63;1.27;;;;;;;;;;5077003;28;20127;-57
2022/07/19 07:27:59;;;;;;;1.23;1.13;;;;;;;;;;5076649;28;20037;-58
2022/07/19 07:30:26;;;;;;;1.08;0.95;;;;;;;;;;5083890;28;20051;-57
2022/07/19 07:32:52;;;;;;;2.78;1.33;;;;;;;;;;5078167;28;20063;-58
2022/07/19 07:35:18;;;;;;;1.73;1.20;;;;;;;;;;5080027;28;20040;-58
2022/07/19 07:37:44;;;;;;;2.00;1.13;;;;;;;;;;5071721;28;20658;-58
2022/07/19 07:40:11;;;;;;;1.55;1.02;;;;;;;;;;5073181;28;20148;-58
2022/07/19 07:42:37;;;;;;;4.05;1.50;;;;;;;;;;5069244;28;20056;-57
2022/07/19 07:45:03;;;;;;;1.38;1.10;;;;;;;;;;5070417;28;20044;-58
2022/07/19 07:47:29;;;;;;;1.40;1.20;;;;;;;;;;5069568;28;20654;-58
2022/07/19 07:49:55;;;;;;;1.48;1.05;;;;;;;;;;5070129;28;20385;-58
2022/07/19 07:52:21;;;;;;;1.73;1.20;;;;;;;;;;5071946;28;20192;-58
2022/07/19 07:54:48;;;;;;;1.52;1.15;;;;;;;;;;5070358;28;20075;-58
2022/07/19 07:57:14;;;;;;;1.10;1.00;;;;;;;;;;5074463;28;20105;-58
2022/07/19 07:59:41;;;;;;;1.27;0.82;;;;;;;;;;5084957;28;20044;-58
2022/07/19 08:02:07;;;;;;;2.08;1.35;;;;;;;;;;5077972;28;20423;-57
2022/07/19 08:04:33;;;;;;;2.05;1.02;;;;;;;;;;5070849;28;20048;-57
2022/07/19 08:06:59;;;;;;;2.58;1.50;;;;;;;;;;5070313;28;20041;-58
2022/07/19 08:09:25;;;;;;;3.08;1.30;;;;;;;;;;5070012;28;20379;-58
2022/07/19 08:11:51;;;;;;;1.13;1.02;;;;;;;;;;5073137;28;20029;-57
2022/07/19 08:14:17;;;;;;;1.80;1.60;;;;;;;;;;5070828;28;20044;-57
2022/07/19 08:16:43;;;;;;;1.73;1.48;;;;;;;;;;5072684;28;20473;-58
2022/07/19 08:19:09;;;;;;;2.88;1.60;;;;;;;;;;5083664;28;20094;-57
2022/07/19 08:21:35;;;;;;;2.42;1.15;;;;;;;;;;5069926;28;20044;-57
2022/07/19 08:24:01;;;;;;;2.45;1.20;;;;;;;;;;5070407;28;20083;-57
2022/07/19 08:26:30;;;;;;;2.35;1.25;;;;;;;;;;5070676;28;20049;-57
2022/07/19 08:28:56;;;;;;;2.08;1.33;;;;;;;;;;5071218;28;20044;-58
2022/07/19 08:31:22;;;;;;;1.67;1.13;;;;;;;;;;5070136;28;20385;-58
2022/07/19 08:33:48;;;;;;;2.28;1.10;;;;;;;;;;5071129;28;20048;-58
2022/07/19 08:36:14;;;;;;;3.05;1.50;;;;;;;;;;5069563;28;20475;-57
2022/07/19 08:38:40;;;;;;;1.63;1.30;;;;;;;;;;5082561;28;20071;-58
2022/07/19 08:41:07;;;;;;;2.85;1.35;;;;;;;;;;5071305;28;20086;-57
2022/07/19 08:43:33;;;;;;;4.22;1.80;;;;;;;;;;5070493;28;20083;-58
2022/07/19 08:46:00;;;;;;;3.85;1.90;;;;;;;;;;5073107;28;20044;-57
2022/07/19 08:48:27;;;;;;;2.83;1.50;;;;;;;;;;5076450;28;20044;-57
2022/07/19 08:50:53;;;;;;;4.25;1.75;;;;;;;;;;5083220;28;20539;-59
2022/07/19 08:53:21;;;;;;;1.50;1.27;;;;;;;;;;5084566;28;20036;-58
2022/07/19 08:55:49;;;;;;;2.20;1.38;;;;;;;;;;5082540;28;20039;-58
2022/07/19 08:58:15;;;;;;;2.75;1.90;;;;;;;;;;5073223;28;20048;-58
2022/07/19 09:00:41;;;;;;;2.60;1.70;;;;;;;;;;5070342;28;20423;-58
2022/07/19 09:03:08;;;;;;;5.22;2.05;;;;;;;;;;5070882;28;20056;-58
2022/07/19 09:05:34;;;;;;;4.30;1.88;;;;;;;;;;5075017;28;20160;-58
2022/07/19 09:08:02;;;;;;;4.43;1.92;;;;;;;;;;5071101;28;20041;-58
2022/07/19 09:10:29;;;;;;;6.30;1.95;;;;;;;;;;5069800;28;20052;-58
2022/07/19 09:12:58;;;;;;;3.05;1.85;;;;;;;;;;5077008;28;20465;-57
2022/07/19 09:15:37;;;;;;;5.00;2.15;;;;;;;;;;5075236;28;20047;-58
2022/07/19 09:18:07;;;;;;;2.83;1.65;;;;;;;;;;5081891;28;20119;-58
2022/07/19 09:20:34;;;;;;;3.63;1.73;;;;;;;;;;5071682;28;20098;-57
2022/07/19 09:23:01;;;;;;;2.58;1.52;;;;;;;;;;5077437;28;20063;-58
2022/07/19 09:25:53;;;;;;;6.03;2.40;;;;;;;;;;5080256;28;20040;-57
2022/07/19 09:28:20;;;;;;;3.78;1.95;;;;;;;;;;5081880;28;20059;-57
2022/07/19 09:30:56;;;;;;;3.90;1.73;;;;;;;;;;5080216;28;20036;-57
2022/07/19 09:33:24;;;;;;;4.28;1.92;;;;;;;;;;5072671;28;20468;-57
2022/07/19 09:35:52;;;;;;;2.95;1.70;;;;;;;;;;5073445;28;20048;-57
2022/07/19 09:38:24;;;;;;;4.22;1.95;;;;;;;;;;5070353;28;20041;-57
2022/07/19 09:40:51;;;;;;;3.58;1.98;;;;;;;;;;5071948;28;20492;-57
2022/07/19 09:43:18;;;;;;;3.70;2.03;;;;;;;;;;5076003;28;20169;-57
2022/07/19 09:45:45;;;;;;;4.10;1.77;;;;;;;;;;5075646;28;20412;-57
2022/07/19 09:48:11;;;;;;;4.07;1.90;;;;;;;;;;5081069;28;20110;-57
2022/07/19 09:50:37;;;;;;;3.78;1.90;;;;;;;;;;5068543;28;20048;-57
2022/07/19 09:53:04;;;;;;;4.47;2.03;;;;;;;;;;5070114;28;20044;-57
2022/07/19 09:55:30;;;;;;;3.55;1.65;;;;;;;;;;5068603;28;20477;-57
2022/07/19 09:57:57;;;;;;;4.18;1.77;;;;;;;;;;5081508;28;20062;-57
2022/07/19 10:00:24;;;;;;;6.22;2.17;;;;;;;;;;5089152;28;20101;-58
2022/07/19 10:02:55;;;;;;;2.95;1.65;;;;;;;;;;5090172;28;20424;-57
2022/07/19 10:05:21;;;;;;;2.35;1.55;;;;;;;;;;5089261;28;20040;-57
2022/07/19 10:07:48;;;;;;;4.25;1.92;;;;;;;;;;5076441;28;20050;-58
2022/07/19 10:10:15;;;;;;;3.28;1.80;;;;;;;;;;5075016;28;20373;-58
2022/07/19 10:12:43;;;;;;;4.55;2.00;;;;;;;;;;5074106;28;20044;-58
2022/07/19 10:15:10;;;;;;;3.65;2.13;;;;;;;;;;5073150;28;20041;-58
2022/07/19 10:17:42;;;;;;;3.22;1.73;;;;;;;;;;5070169;28;20124;-58
2022/07/19 10:20:09;;;;;;;4.28;1.70;;;;;;;;;;5081412;28;20044;-58
2022/07/19 10:22:39;;;;;;;4.40;2.03;;;;;;;;;;5087365;28;20040;-58
2022/07/19 10:25:05;;;;;;;4.32;2.05;;;;;;;;;;5073433;28;20075;-58
2022/07/19 16:14:48;;;;;;;3.97;2.00;;;;;;;;;;5116906;27;1954169;-57
2022/07/19 16:17:15;;;;;;;2.33;1.70;;;;;;;;;;5150798;27;20070;-58
2022/07/19 16:19:41;;;;;;;4.22;1.85;;;;;;;;;;5148465;27;20041;-58
2022/07/19 16:22:07;;;;;;;5.43;2.20;;;;;;;;;;5147817;27;20043;-58
2022/07/19 16:24:33;;;;;;;2.88;1.70;;;;;;;;;;5149560;27;20081;-58
2022/07/19 16:26:59;;;;;;;4.05;1.88;;;;;;;;;;5148287;27;20038;-58
2022/07/19 16:29:25;;;;;;;3.85;1.88;;;;;;;;;;5148840;27;20516;-58
2022/07/19 16:31:51;;;;;;;7.72;1.77;;;;;;;;;;5148771;27;20434;-58
2022/07/19 16:34:17;;;;;;;3.63;1.92;;;;;;;;;;5149979;27;20047;-58
2022/07/19 16:36:43;;;;;;;3.67;2.00;;;;;;;;;;5144504;27;20105;-58
2022/07/19 16:39:09;;;;;;;3.20;1.77;;;;;;;;;;5148178;27;20070;-58
2022/07/19 16:41:35;;;;;;;5.90;2.00;;;;;;;;;;5146526;27;20050;-56
2022/07/19 16:44:01;;;;;;;4.40;2.33;;;;;;;;;;5134068;27;20046;-56
2022/07/19 16:46:29;;;;;;;3.30;1.70;;;;;;;;;;5147731;27;20050;-56
2022/07/19 16:48:55;;;;;;;4.13;2.10;;;;;;;;;;5146909;27;20049;-58
2022/07/19 16:51:21;;;;;;;3.38;1.85;;;;;;;;;;5144931;27;20050;-58
2022/07/19 16:53:47;;;;;;;4.28;2.13;;;;;;;;;;5150148;27;20415;-58
2022/07/19 16:56:13;;;;;;;3.42;1.95;;;;;;;;;;5147438;27;20394;-58
2022/07/19 16:58:40;;;;;;;2.80;1.98;;;;;;;;;;5147856;27;20468;-58
2022/07/19 17:01:06;;;;;;;3.28;1.90;;;;;;;;;;5147196;27;20470;-58
2022/07/19 17:03:35;;;;;;;3.47;1.90;;;;;;;;;;5146065;27;20035;-58
2022/07/19 17:06:01;;;;;;;5.13;2.38;;;;;;;;;;5143941;27;20035;-58
2022/07/19 17:08:27;;;;;;;6.00;2.58;;;;;;;;;;5147404;27;20125;-58
2022/07/19 17:10:53;;;;;;;3.63;2.28;;;;;;;;;;5149440;27;20081;-58
2022/07/19 17:13:19;;;;;;;5.43;2.20;;;;;;;;;;5124032;27;20051;-58
2022/07/19 17:15:45;;;;;;;4.28;1.83;;;;;;;;;;5145715;27;20047;-58
2022/07/19 17:18:11;;;;;;;6.47;2.00;;;;;;;;;;5152155;27;20043;-58
2022/07/19 17:20:37;;;;;;;4.70;2.00;;;;;;;;;;5152903;27;20043;-58
2022/07/19 17:23:04;;;;;;;4.90;2.22;;;;;;;;;;5165571;27;20351;-58
2022/07/19 17:25:30;;;;;;;5.18;2.72;;;;;;;;;;5158336;27;20554;-58
2022/07/19 17:27:56;;;;;;;3.85;2.08;;;;;;;;;;5154741;27;20092;-58
2022/07/19 17:30:23;;;;;;;4.60;2.38;;;;;;;;;;5134451;27;20055;-58
2022/07/19 17:32:49;;;;;;;3.65;1.88;;;;;;;;;;5147954;27;20672;-58
2022/07/19 17:35:15;;;;;;;4.25;2.17;;;;;;;;;;5154061;27;20498;-58
2022/07/19 17:37:41;;;;;;;3.85;1.80;;;;;;;;;;5153263;27;20150;-57
2022/07/19 17:40:08;;;;;;;4.05;1.77;;;;;;;;;;5138113;27;20169;-57
2022/07/19 17:42:34;;;;;;;6.53;1.90;;;;;;;;;;5155038;27;20046;-57
2022/07/19 17:45:00;;;;;;;4.28;2.00;;;;;;;;;;5119379;27;20039;-57
2022/07/19 17:47:26;;;;;;;3.25;1.80;;;;;;;;;;5133528;27;20047;-58
2022/07/19 17:49:53;;;;;;;4.97;1.63;;;;;;;;;;5133429;27;20119;-58
2022/07/19 17:52:19;;;;;;;3.03;1.85;;;;;;;;;;5136892;27;20103;-58
2022/07/19 17:54:45;;;;;;;6.53;2.60;;;;;;;;;;5136375;27;20050;-58
2022/07/19 17:57:11;;;;;;;4.65;2.08;;;;;;;;;;5143821;27;20074;-58
2022/07/19 17:59:37;;;;;;;9.48;2.67;;;;;;;;;;5141103;27;20050;-58
2022/07/19 18:02:03;;;;;;;6.30;1.90;;;;;;;;;;5136467;27;20039;-58
2022/07/19 18:04:30;;;;;;;4.95;2.17;;;;;;;;;;5114974;27;20084;-58
2022/07/19 18:06:56;;;;;;;3.83;2.17;;;;;;;;;;5130790;27;20050;-58
2022/07/19 18:09:22;;;;;;;5.97;2.38;;;;;;;;;;5133685;27;20421;-58
2022/07/19 18:11:48;;;;;;;7.45;1.83;;;;;;;;;;5132793;27;20665;-58
2022/07/19 18:14:16;;;;;;;5.70;1.90;;;;;;;;;;5140741;27;20139;-58
2022/07/19 18:16:42;;;;;;;5.47;2.20;;;;;;;;;;5098159;27;20373;-58
2022/07/19 18:19:08;;;;;;;4.85;2.75;;;;;;;;;;5136323;27;20498;-58
2022/07/19 18:21:34;;;;;;;2.80;1.80;;;;;;;;;;5138070;27;20103;-58
2022/07/19 18:24:00;;;;;;;3.97;2.10;;;;;;;;;;5153802;27;20039;-58
2022/07/19 18:26:26;;;;;;;3.05;2.08;;;;;;;;;;5147010;27;20061;-58
2022/07/19 18:28:52;;;;;;;3.70;1.90;;;;;;;;;;5133357;27;20207;-58
2022/07/19 18:31:19;;;;;;;4.03;2.30;;;;;;;;;;5132333;27;20041;-58
2022/07/19 18:33:45;;;;;;;3.40;1.77;;;;;;;;;;5103130;27;20476;-58
2022/07/19 18:36:11;;;;;;;7.95;2.03;;;;;;;;;;5121231;27;20051;-58
2022/07/19 18:38:37;;;;;;;4.90;2.20;;;;;;;;;;5148283;27;20082;-58
2022/07/19 18:41:03;;;;;;;4.68;2.30;;;;;;;;;;5139463;27;20039;-56
2022/07/19 18:43:29;;;;;;;4.07;2.08;;;;;;;;;;5133753;27;20043;-56
2022/07/19 18:45:56;;;;;;;2.90;1.60;;;;;;;;;;5132209;27;20084;-56
2022/07/19 18:48:29;;;;;;;3.10;1.90;;;;;;;;;;5130918;27;20047;-56
2022/07/19 18:50:59;;;;;;;5.60;1.98;;;;;;;;;;5111661;27;20074;-56
2022/07/19 18:53:26;;;;;;;4.70;1.83;;;;;;;;;;5116865;27;20039;-56
2022/07/19 18:55:52;;;;;;;5.43;2.30;;;;;;;;;;5133283;27;20042;-56
2022/07/19 18:58:18;;;;;;;4.70;2.17;;;;;;;;;;5131506;27;20036;-56
2022/07/19 19:00:44;;;;;;;6.35;1.77;;;;;;;;;;5132134;27;20039;-56
2022/07/19 19:03:11;;;;;;;5.13;2.20;;;;;;;;;;5132782;27;20027;-56
2022/07/19 19:05:38;;;;;;;3.67;2.00;;;;;;;;;;5132356;27;20073;-56
2022/07/19 19:08:05;;;;;;;4.60;1.95;;;;;;;;;;5130810;27;20043;-56
2022/07/19 19:10:32;;;;;;;5.60;2.20;;;;;;;;;;5131764;27;20039;-56
2022/07/19 19:12:58;;;;;;;4.35;1.45;;;;;;;;;;5131604;27;20124;-56
2022/07/19 19:15:24;;;;;;;3.80;1.85;;;;;;;;;;5129380;27;20122;-56
2022/07/19 19:17:51;;;;;;;5.43;1.80;;;;;;;;;;5133873;27;20635;-56
2022/07/19 19:20:17;;;;;;;4.90;2.17;;;;;;;;;;5133646;27;20080;-56
2022/07/19 19:22:43;;;;;;;4.10;1.92;;;;;;;;;;5127586;27;20122;-56
2022/07/19 19:25:10;;;;;;;3.47;2.00;;;;;;;;;;5131235;27;20130;-56
2022/07/19 19:27:36;;;;;;;3.33;1.92;;;;;;;;;;5131363;27;20377;-56
2022/07/19 19:30:02;;;;;;;5.10;2.10;;;;;;;;;;5131114;27;20035;-56
2022/07/19 19:32:28;;;;;;;3.53;1.80;;;;;;;;;;5130103;27;20478;-56
2022/07/19 19:34:58;;;;;;;2.95;1.90;;;;;;;;;;5133511;27;20812;-56
2022/07/19 19:37:24;;;;;;;4.57;2.10;;;;;;;;;;5134905;27;20489;-56
2022/07/19 19:39:50;;;;;;;6.70;2.08;;;;;;;;;;5136155;27;20035;-56
2022/07/19 19:42:16;;;;;;;2.95;1.83;;;;;;;;;;5132335;27;20118;-56
2022/07/19 19:44:43;;;;;;;4.28;2.38;;;;;;;;;;5134300;27;20027;-56
2022/07/19 19:47:10;;;;;;;2.53;1.45;;;;;;;;;;5130437;27;20051;-56
2022/07/19 19:49:36;;;;;;;3.67;2.10;;;;;;;;;;5130780;27;20126;-56
2022/07/19 19:52:03;;;;;;;3.00;1.83;;;;;;;;;;5128963;27;20055;-56
2022/07/19 19:54:29;;;;;;;2.53;1.77;;;;;;;;;;5131236;27;20084;-56
2022/07/19 19:56:55;;;;;;;4.30;1.83;;;;;;;;;;5130454;27;20067;-56
2022/07/19 19:59:21;;;;;;;4.22;1.95;;;;;;;;;;5130449;27;20071;-56
2022/07/19 20:01:47;;;;;;;3.03;1.98;;;;;;;;;;5112405;28;20039;-56
2022/07/19 20:04:13;;;;;;;3.72;1.83;;;;;;;;;;5117398;27;20099;-56
2022/07/19 20:06:39;;;;;;;6.00;2.10;;;;;;;;;;5129180;27;20035;-55
2022/07/19 20:09:05;;;;;;;7.88;2.60;;;;;;;;;;5133698;27;20089;-55
2022/07/19 20:11:31;;;;;;;11.23;2.95;;;;;;;;;;5131497;27;20099;-56
2022/07/19 20:13:58;;;;;;;13.95;2.33;;;;;;;;;;5130693;28;21462;-55
2022/07/19 20:16:24;;;;;;;7.97;2.70;;;;;;;;;;5127694;28;20908;-56
2022/07/19 20:18:50;;;;;;;10.52;2.95;;;;;;;;;;5131172;28;20046;-56
2022/07/19 20:21:17;;;;;;;11.98;2.35;;;;;;;;;;5129344;28;20632;-55
2022/07/19 20:23:43;;;;;;;11.60;2.58;;;;;;;;;;5131633;28;20039;-56
2022/07/19 20:26:10;;;;;;;14.02;2.83;;;;;;;;;;5130597;28;20039;-55
2022/07/19 20:28:36;;;;;;;11.27;2.90;;;;;;;;;;5131383;28;20036;-55